Carnforth, United Kingdom
Current Conditions -  °F | °C
As of 1:20 PM on Sunday 21 Dec 2014 (Local Time) from EGNO Reporting Station
Broken Clouds Broken Clouds  
Wind Chill: 50°   Ceiling: 1800
Heat Index: 50°   Visibility: 6mi
Dew Point: 46°   Wind: 16mph
Humidity: 87%   Direction: 240°WSW
Pressure: 30.03"   Gusts: NA
Location:  54.12°N, 2.77°W
Report Text: EGNO 211320Z 24014KT 9999 FEW012 BKN018 10/08 Q1017
Loading
Personal Weather Stations






























Interactive Weather Map New forecast layout! Learn more

10-Day Weather Forecast

Advertisements
Track Severe Weather on mobile